KAPC/APC METAR and TAF weather

Enter ICAO airport designator
Station Type Date Time Source
KAPC METAR 2019/04/25 21:54 UTC NOAA

KAPC 252154Z 20012KT 10SM CLR 21/15 A2993 RMK AO2 SLP126 T02110150


Station Type Date Time Source
KAPC Decoded METAR 2019/04/25 21:54 UTC NOAA

NAPA COUNTY AIRPORT, CA, United States (KAPC) 38-12N 122-17W 13M
Apr 25, 2019 - 05:54 PM EDT / 2019.04.25 2154 UTC
Wind: from the SSW (200 degrees) at 14 MPH (12 KT):0
Visibility: 10 mile(s):0
Sky conditions: clear
Temperature: 70.0 F (21.1 C)
Dew Point: 59.0 F (15.0 C)
Relative Humidity: 68%
Pressure (altimeter): 29.93 in. Hg (1013 hPa)
ob: KAPC 252154Z 20012KT 10SM CLR 21/15 A2993 RMK AO2 SLP126 T02110150
cycle: 22

Station Type Date Time Source
KAPC TAF 2016/02/08 18:39 UTC NOAA

TAF KAPC 081738Z 0818/0918 08008KT P6SM SKC
FM081900 09012KT P6SM SKC
FM090000 07007KT P6SM SKC
FM090600 04004KT P6SM SKC

Example: see airport list